createdAt,value
2022-11-22T00:02:00.208Z,19.90
2022-11-22T00:04:28.536Z,19.70
2022-11-22T00:06:56.800Z,26.40
2022-11-22T00:09:25.497Z,27.00
2022-11-22T00:11:54.757Z,26.90
2022-11-22T00:14:23.574Z,24.20
2022-11-22T00:16:57.728Z,26.10
2022-11-22T00:19:31.575Z,22.60
2022-11-22T00:22:04.330Z,17.20
2022-11-22T00:24:35.415Z,23.60
2022-11-22T00:27:03.790Z,22.90
2022-11-22T00:29:32.374Z,20.50
2022-11-22T00:32:00.866Z,25.20
2022-11-22T00:34:29.339Z,25.30
2022-11-22T00:36:57.720Z,24.00
2022-11-22T00:39:26.242Z,23.40
2022-11-22T00:41:54.687Z,25.30
2022-11-22T00:44:23.062Z,22.10
2022-11-22T00:46:51.538Z,20.80
2022-11-22T00:49:19.918Z,16.40
2022-11-22T00:51:48.300Z,22.20
2022-11-22T00:54:16.676Z,20.90
2022-11-22T00:56:45.037Z,17.80
2022-11-22T00:59:13.838Z,23.70
2022-11-22T01:01:42.432Z,19.60
2022-11-22T01:04:10.907Z,17.40
2022-11-22T01:06:39.706Z,21.50
2022-11-22T01:09:08.166Z,14.80
2022-11-22T01:11:36.423Z,18.00
2022-11-22T01:14:04.845Z,14.20
2022-11-22T01:16:33.119Z,17.30
2022-11-22T01:19:01.397Z,18.70
2022-11-22T01:21:29.578Z,21.90
2022-11-22T01:23:57.948Z,24.30
2022-11-22T01:26:26.562Z,22.90
2022-11-22T01:28:55.498Z,20.00
2022-11-22T01:31:23.684Z,24.00
2022-11-22T01:33:52.047Z,23.20
2022-11-22T01:36:21.040Z,15.40
2022-11-22T01:38:49.731Z,19.60
2022-11-22T01:41:18.093Z,8.90
2022-11-22T01:43:46.496Z,16.40
2022-11-22T01:46:37.507Z,17.40
2022-11-22T01:49:19.898Z,23.50
2022-11-22T01:51:51.463Z,27.80
2022-11-22T01:54:24.591Z,19.40
2022-11-22T01:56:58.887Z,20.20
2022-11-22T01:59:31.079Z,18.50
2022-11-22T02:02:01.322Z,15.70
2022-11-22T02:04:32.696Z,18.80
2022-11-22T02:07:13.640Z,18.00
2022-11-22T02:09:44.114Z,16.30
2022-11-22T02:12:13.795Z,24.30
2022-11-22T02:14:43.538Z,25.90
2022-11-22T02:17:11.739Z,24.80
2022-11-22T02:19:45.856Z,25.60
2022-11-22T02:22:35.802Z,27.80
2022-11-22T02:25:30.150Z,28.30
2022-11-22T02:27:59.486Z,21.50
2022-11-22T02:30:28.161Z,29.20
2022-11-22T02:32:56.659Z,16.90
2022-11-22T02:35:28.209Z,21.90
2022-11-22T02:38:06.412Z,27.50
2022-11-22T02:40:40.541Z,26.40
2022-11-22T02:43:14.511Z,22.10
2022-11-22T02:45:43.110Z,17.40
2022-11-22T02:48:14.324Z,22.70
2022-11-22T02:50:43.651Z,17.00
2022-11-22T02:53:12.572Z,18.50
2022-11-22T02:55:41.198Z,20.30
2022-11-22T02:58:09.731Z,18.60
2022-11-22T03:00:39.638Z,18.50
2022-11-22T03:03:07.977Z,19.00
2022-11-22T03:05:36.316Z,21.10
2022-11-22T03:08:04.526Z,18.40
2022-11-22T03:10:33.063Z,22.20
2022-11-22T03:13:01.441Z,19.50
2022-11-22T03:15:29.809Z,14.90
2022-11-22T03:18:02.297Z,12.50
2022-11-22T03:20:31.598Z,16.30
2022-11-22T03:23:03.348Z,17.40
2022-11-22T03:25:31.718Z,14.00
2022-11-22T03:28:00.110Z,19.00
2022-11-22T03:30:28.483Z,18.20
2022-11-22T03:32:56.753Z,16.10
2022-11-22T03:35:25.235Z,18.20
2022-11-22T03:37:53.711Z,20.80
2022-11-22T03:40:22.349Z,13.80
2022-11-22T03:42:50.630Z,13.80
2022-11-22T03:45:18.869Z,17.30
2022-11-22T03:47:47.033Z,16.80
2022-11-22T03:50:16.340Z,20.70
2022-11-22T03:52:44.537Z,20.10
2022-11-22T03:55:12.673Z,21.60
2022-11-22T03:57:40.951Z,16.80
2022-11-22T04:00:09.917Z,24.30
2022-11-22T04:02:40.126Z,13.30
2022-11-22T04:05:08.857Z,12.10
2022-11-22T04:07:37.271Z,14.00
2022-11-22T04:10:07.156Z,26.60
2022-11-22T04:12:35.927Z,18.90
2022-11-22T04:15:07.812Z,16.30
2022-11-22T04:17:41.408Z,25.60
2022-11-22T04:20:34.887Z,15.70
2022-11-22T04:23:10.437Z,23.10
2022-11-22T04:25:41.796Z,22.50
2022-11-22T04:28:11.790Z,28.30
2022-11-22T04:30:59.401Z,26.40
2022-11-22T04:33:28.141Z,18.70
2022-11-22T04:35:56.639Z,17.30
2022-11-22T04:38:25.093Z,19.30
2022-11-22T04:40:54.770Z,21.10
2022-11-22T04:43:47.936Z,23.20
2022-11-22T04:46:16.836Z,21.20
2022-11-22T04:48:45.205Z,25.10
2022-11-22T04:51:34.268Z,24.90
2022-11-22T04:54:03.043Z,27.30
2022-11-22T04:56:31.322Z,27.40
2022-11-22T04:58:59.490Z,28.00
2022-11-22T05:01:27.817Z,22.00
2022-11-22T05:03:56.255Z,24.00
2022-11-22T05:06:24.610Z,27.00
2022-11-22T05:08:52.891Z,18.50
2022-11-22T05:11:22.110Z,19.20
2022-11-22T05:13:50.807Z,17.50
2022-11-22T05:16:19.618Z,20.30
2022-11-22T05:18:59.623Z,12.30
2022-11-22T05:21:30.265Z,21.60
2022-11-22T05:23:59.058Z,20.10
2022-11-22T05:26:28.471Z,21.50
2022-11-22T05:29:00.581Z,16.30
2022-11-22T05:31:29.219Z,12.10
2022-11-22T05:33:57.877Z,23.80
2022-11-22T05:36:26.563Z,27.20
2022-11-22T05:38:55.372Z,33.30
2022-11-22T05:41:23.653Z,21.20
2022-11-22T05:43:55.613Z,38.60
2022-11-22T05:46:29.221Z,24.40
2022-11-22T05:48:59.789Z,22.70
2022-11-22T05:51:34.618Z,24.70
2022-11-22T05:54:05.034Z,15.40
2022-11-22T05:56:34.010Z,22.70
2022-11-22T05:59:02.485Z,19.00
2022-11-22T06:01:30.978Z,15.50
2022-11-22T06:03:59.430Z,24.50
2022-11-22T06:06:27.720Z,25.60
2022-11-22T06:08:57.169Z,26.80
2022-11-22T06:11:28.267Z,28.30
2022-11-22T06:14:03.642Z,25.90
2022-11-22T06:16:32.436Z,23.80
2022-11-22T06:19:01.289Z,24.30
2022-11-22T06:21:31.646Z,26.70
2022-11-22T06:24:00.702Z,23.70
2022-11-22T06:26:32.417Z,23.50
2022-11-22T06:29:04.945Z,21.60
2022-11-22T06:31:33.723Z,18.90
2022-11-22T06:34:02.830Z,17.40
2022-11-22T06:36:33.893Z,18.80
2022-11-22T06:39:05.418Z,21.30
2022-11-22T06:41:36.896Z,20.10
2022-11-22T06:44:07.380Z,16.60
2022-11-22T06:46:36.999Z,10.90
2022-11-22T06:49:06.829Z,14.90
2022-11-22T06:51:35.718Z,16.80
2022-11-22T06:54:05.196Z,13.40
2022-11-22T06:56:38.788Z,7.50
2022-11-22T06:59:10.669Z,13.90
2022-11-22T07:01:39.707Z,10.10
2022-11-22T07:04:09.399Z,12.70
2022-11-22T07:06:39.417Z,12.50
2022-11-22T07:09:12.725Z,13.00
2022-11-22T07:11:42.093Z,9.50
2022-11-22T07:14:11.815Z,13.10
2022-11-22T07:16:41.028Z,19.00
2022-11-22T07:19:11.053Z,22.30
2022-11-22T07:21:40.647Z,17.70
2022-11-22T07:24:11.991Z,22.80
2022-11-22T07:26:42.215Z,20.00
2022-11-22T07:29:11.023Z,18.10
2022-11-22T07:31:41.492Z,20.40
2022-11-22T07:34:11.138Z,20.50
2022-11-22T07:36:40.844Z,19.00
2022-11-22T07:39:10.307Z,26.90
2022-11-22T07:41:39.754Z,14.30
2022-11-22T07:44:08.442Z,20.80
2022-11-22T07:46:36.917Z,23.80
2022-11-22T07:49:05.829Z,16.40
2022-11-22T07:51:34.142Z,18.90
2022-11-22T07:54:06.397Z,20.90
2022-11-22T07:56:40.605Z,17.90
2022-11-22T07:59:09.948Z,16.50
2022-11-22T08:01:38.976Z,12.90
2022-11-22T08:04:07.312Z,18.30
2022-11-22T08:06:35.692Z,19.70
2022-11-22T08:09:13.026Z,18.60
2022-11-22T08:11:45.609Z,24.60
2022-11-22T08:14:18.531Z,18.50
2022-11-22T08:16:52.149Z,21.20
2022-11-22T08:19:20.932Z,19.60
2022-11-22T08:21:52.715Z,23.50
2022-11-22T08:24:25.675Z,21.30
2022-11-22T08:26:54.368Z,15.40
2022-11-22T08:29:23.486Z,15.30
2022-11-22T08:31:52.783Z,17.30
2022-11-22T08:34:21.861Z,12.70
2022-11-22T08:36:50.549Z,14.20
2022-11-22T08:39:19.440Z,16.30
2022-11-22T08:41:48.977Z,9.10
2022-11-22T08:44:17.527Z,14.70
2022-11-22T08:46:46.127Z,21.30
2022-11-22T08:49:14.801Z,22.80
2022-11-22T08:51:45.226Z,23.30
2022-11-22T08:54:15.448Z,19.60
2022-11-22T08:56:44.551Z,20.90
2022-11-22T08:59:13.227Z,23.90
2022-11-22T09:01:41.693Z,22.40
2022-11-22T09:04:10.927Z,29.40
2022-11-22T09:09:37.325Z,26.40
2022-11-22T09:12:07.160Z,30.70
2022-11-22T09:14:35.763Z,28.10
2022-11-22T09:17:06.076Z,25.80
2022-11-22T09:19:34.588Z,22.50
2022-11-22T09:22:03.066Z,30.10
2022-11-22T09:24:31.757Z,26.40
2022-11-22T09:27:00.203Z,20.80
2022-11-22T09:29:29.321Z,24.10
2022-11-22T09:31:59.943Z,29.10
2022-11-22T09:34:28.823Z,24.80
2022-11-22T09:36:57.636Z,24.20
2022-11-22T09:39:26.142Z,24.90
2022-11-22T09:42:19.770Z,27.30
2022-11-22T09:45:23.617Z,26.60
2022-11-22T09:48:10.603Z,17.80
2022-11-22T09:50:57.614Z,19.50
2022-11-22T09:53:36.417Z,18.10
2022-11-22T09:56:11.912Z,21.80
2022-11-22T09:58:51.803Z,24.00
2022-11-22T10:01:23.972Z,26.40
2022-11-22T10:03:55.991Z,19.80
2022-11-22T10:06:31.616Z,28.40
2022-11-22T10:09:11.641Z,20.80
2022-11-22T10:12:05.047Z,25.40
2022-11-22T10:15:03.712Z,24.60
2022-11-22T10:17:55.567Z,18.20
2022-11-22T10:20:30.107Z,23.50
2022-11-22T10:23:00.647Z,19.00
2022-11-22T10:25:44.983Z,15.70
2022-11-22T10:28:44.766Z,16.70
2022-11-22T10:31:37.149Z,24.10
2022-11-22T10:34:12.678Z,25.40
2022-11-22T10:37:24.335Z,21.20
2022-11-22T10:40:15.700Z,29.50
2022-11-22T10:43:15.010Z,23.40
2022-11-22T10:46:20.044Z,23.80
2022-11-22T10:49:40.139Z,21.30
2022-11-22T10:52:30.207Z,17.70
2022-11-22T10:55:22.519Z,12.80
2022-11-22T10:57:56.614Z,12.40
2022-11-22T11:00:26.659Z,15.80
2022-11-22T11:03:23.725Z,28.50
2022-11-22T11:06:43.461Z,17.00
2022-11-22T11:10:02.799Z,33.90
2022-11-22T11:11:55.397Z,33.00
2022-11-22T11:14:31.991Z,31.60
2022-11-22T11:17:01.680Z,34.40
2022-11-22T11:19:36.818Z,36.40
2022-11-22T11:22:08.356Z,27.60
2022-11-22T11:24:40.852Z,27.80
2022-11-22T11:27:11.766Z,34.30
2022-11-22T11:29:47.832Z,31.10
2022-11-22T11:32:20.039Z,31.10
2022-11-22T11:35:00.489Z,34.10
2022-11-22T11:37:37.263Z,34.00
2022-11-22T11:40:25.090Z,34.70
2022-11-22T11:43:18.961Z,28.20
2022-11-22T11:45:48.389Z,29.90
2022-11-22T11:48:27.288Z,37.70
2022-11-22T11:51:15.336Z,37.00
2022-11-22T11:53:53.844Z,39.40
2022-11-22T11:56:31.099Z,39.10
2022-11-22T11:59:03.909Z,36.50
2022-11-22T12:01:38.796Z,35.80
2022-11-22T12:04:23.724Z,25.00
2022-11-22T12:07:02.938Z,32.20
2022-11-22T12:09:45.256Z,37.50
2022-11-22T12:12:38.228Z,30.20
2022-11-22T12:15:19.804Z,27.10
2022-11-22T12:18:07.224Z,31.90
2022-11-22T12:21:02.951Z,37.50
2022-11-22T12:23:49.463Z,27.70
2022-11-22T12:26:21.242Z,29.90
2022-11-22T12:28:50.428Z,28.00
2022-11-22T12:31:40.300Z,36.00
2022-11-22T12:34:20.775Z,37.70
2022-11-22T12:37:06.191Z,38.80
2022-11-22T12:39:37.265Z,42.60
2022-11-22T12:42:22.684Z,34.70
2022-11-22T12:45:01.570Z,39.20
2022-11-22T12:47:37.640Z,38.70
2022-11-22T12:50:44.732Z,34.70
2022-11-22T12:53:15.877Z,28.90
2022-11-22T12:56:07.485Z,31.10
2022-11-22T12:58:54.405Z,37.70
2022-11-22T13:01:29.503Z,33.20
2022-11-22T13:04:09.894Z,41.00
2022-11-22T13:06:55.307Z,45.30
2022-11-22T13:09:36.470Z,38.80
2022-11-22T13:12:26.756Z,37.50
2022-11-22T13:14:59.227Z,40.50
2022-11-22T13:17:38.983Z,39.90
2022-11-22T13:20:20.974Z,34.50
2022-11-22T13:23:20.368Z,38.60
2022-11-22T13:26:17.229Z,39.70
2022-11-22T13:28:46.680Z,42.80
2022-11-22T13:31:18.977Z,36.00
2022-11-22T13:34:01.903Z,36.80
2022-11-22T13:36:30.803Z,48.80
2022-11-22T13:39:02.998Z,50.90
2022-11-22T13:41:42.077Z,47.50
2022-11-22T13:44:52.163Z,42.10
2022-11-22T13:47:23.925Z,46.40
2022-11-22T13:49:54.418Z,37.10
2022-11-22T13:52:25.898Z,49.90
2022-11-22T13:54:57.234Z,47.50
2022-11-22T13:57:42.997Z,51.70
2022-11-22T14:00:11.922Z,48.00
2022-11-22T14:02:51.735Z,53.50
2022-11-22T14:05:36.552Z,49.90
2022-11-22T14:08:31.680Z,49.70
2022-11-22T14:11:26.440Z,44.80
2022-11-22T14:14:47.176Z,42.90
2022-11-22T14:17:30.812Z,49.10
2022-11-22T14:20:21.087Z,31.30
2022-11-22T14:22:56.422Z,40.70
2022-11-22T14:26:01.322Z,42.70
2022-11-22T14:29:01.411Z,52.00
2022-11-22T14:31:36.692Z,50.90
2022-11-22T14:34:23.541Z,50.10
2022-11-22T14:37:10.973Z,47.90
2022-11-22T14:39:45.505Z,50.60
2022-11-22T14:42:36.186Z,48.70
2022-11-22T14:45:10.831Z,56.20
2022-11-22T14:48:02.264Z,54.10
2022-11-22T14:50:36.751Z,51.60
2022-11-22T14:53:30.112Z,53.10
2022-11-22T14:56:05.433Z,51.70
2022-11-22T14:58:39.698Z,58.40
2022-11-22T15:01:27.675Z,51.50
2022-11-22T15:09:13.693Z,54.10
2022-11-22T15:09:21.467Z,55.10
2022-11-22T15:09:54.399Z,52.20
2022-11-22T15:12:46.826Z,60.90
2022-11-22T15:59:44.989Z,56.20
2022-11-22T16:02:19.254Z,55.80
2022-11-22T16:06:05.252Z,59.20
2022-11-22T16:07:48.476Z,61.90
2022-11-22T16:10:20.272Z,56.20
2022-11-22T16:12:49.895Z,60.10
2022-11-22T16:15:28.825Z,53.40
2022-11-22T16:18:24.980Z,61.60
2022-11-22T16:21:29.098Z,60.60
2022-11-22T16:24:20.349Z,59.80
2022-11-22T16:27:15.480Z,58.80
2022-11-22T16:29:51.476Z,54.00
2022-11-22T16:32:20.354Z,58.40
2022-11-22T16:34:59.002Z,57.80
2022-11-22T16:37:47.857Z,54.30
2022-11-22T16:40:18.172Z,60.90
2022-11-22T16:42:47.480Z,57.40
2022-11-22T16:45:19.170Z,56.70
2022-11-22T16:47:58.644Z,65.30
2022-11-22T16:50:39.342Z,59.30
2022-11-22T16:53:17.140Z,57.70
2022-11-22T16:55:46.024Z,61.30
2022-11-22T16:58:21.202Z,65.00
2022-11-22T17:00:51.170Z,52.70
2022-11-22T17:03:27.566Z,51.70
2022-11-22T17:05:56.358Z,49.10
2022-11-22T17:08:25.143Z,62.40
2022-11-22T17:10:53.712Z,50.60
2022-11-22T17:13:28.533Z,57.70
2022-11-22T17:15:58.143Z,49.40
2022-11-22T17:18:26.617Z,62.00
2022-11-22T17:20:55.349Z,69.90
2022-11-22T17:23:36.176Z,61.30
2022-11-22T17:26:06.312Z,65.30
2022-11-22T17:28:35.713Z,65.80
2022-11-22T17:31:13.850Z,57.50
2022-11-22T17:33:49.981Z,60.90
2022-11-22T17:36:33.300Z,51.90
2022-11-22T17:39:06.303Z,61.30
2022-11-22T17:41:35.794Z,65.50
2022-11-22T17:44:06.612Z,66.00
2022-11-22T17:46:39.148Z,61.20
2022-11-22T17:49:14.119Z,60.80
2022-11-22T17:51:47.035Z,55.10
2022-11-22T17:54:16.326Z,55.50
2022-11-22T17:56:46.678Z,55.90
2022-11-22T17:59:15.314Z,55.70
2022-11-22T18:01:44.978Z,57.80
2022-11-22T18:04:14.969Z,56.20
2022-11-22T18:06:44.819Z,56.10
2022-11-22T18:09:14.691Z,56.60
2022-11-22T18:11:46.179Z,59.00
2022-11-22T18:14:18.898Z,57.60
2022-11-22T18:16:50.158Z,59.60
2022-11-22T18:19:20.296Z,58.20
2022-11-22T18:21:50.601Z,56.50
2022-11-22T18:24:20.403Z,53.50
2022-11-22T18:26:52.951Z,89.90
2022-11-22T18:29:41.773Z,105.30
2022-11-22T18:32:13.494Z,67.60
2022-11-22T18:34:44.675Z,70.40
2022-11-22T18:37:15.301Z,72.30
2022-11-22T18:39:45.269Z,72.40
2022-11-22T18:42:17.505Z,68.50
2022-11-22T18:44:47.710Z,68.60
2022-11-22T18:47:17.916Z,61.90
2022-11-22T18:49:49.460Z,65.90
2022-11-22T18:52:23.652Z,58.20
2022-11-22T18:54:57.153Z,64.90
2022-11-22T18:57:29.805Z,95.00
2022-11-22T19:00:00.302Z,69.00
2022-11-22T19:02:30.728Z,52.60
2022-11-22T19:05:02.925Z,79.00
2022-11-22T19:07:33.384Z,60.20
2022-11-22T19:10:02.941Z,57.60
2022-11-22T19:12:32.648Z,61.90
2022-11-22T19:15:01.441Z,68.80
2022-11-22T19:17:31.650Z,80.10
2022-11-22T19:20:00.848Z,103.80
2022-11-22T19:22:30.863Z,93.50
2022-11-22T19:24:59.749Z,77.20
2022-11-22T19:27:28.566Z,71.30
2022-11-22T19:29:58.224Z,60.40
2022-11-22T19:32:28.261Z,63.20
2022-11-22T19:34:57.063Z,60.80
2022-11-22T19:37:25.834Z,58.30
2022-11-22T19:39:54.680Z,59.70
2022-11-22T19:42:23.785Z,63.50
2022-11-22T19:44:52.620Z,66.00
2022-11-22T19:47:21.626Z,68.20
2022-11-22T19:49:51.319Z,72.40
2022-11-22T19:52:21.007Z,71.60
2022-11-22T19:54:51.424Z,67.40
2022-11-22T19:57:22.749Z,83.40
2022-11-22T19:59:59.909Z,78.90
2022-11-22T20:02:30.685Z,73.70
2022-11-22T20:05:00.376Z,66.10
2022-11-22T20:07:30.416Z,74.20
2022-11-22T20:09:59.952Z,72.30
2022-11-22T20:12:29.966Z,69.40
2022-11-22T20:14:59.083Z,64.20
2022-11-22T20:17:30.801Z,67.80
2022-11-22T20:20:01.137Z,70.60
2022-11-22T20:22:31.904Z,75.50
2022-11-22T20:25:02.646Z,72.20
2022-11-22T20:27:32.171Z,78.10
2022-11-22T20:30:01.848Z,78.70
2022-11-22T20:32:32.576Z,78.30
2022-11-22T20:35:02.286Z,67.70
2022-11-22T20:37:33.865Z,66.70
2022-11-22T20:40:05.246Z,57.10
2022-11-22T20:42:35.366Z,56.10
2022-11-22T20:45:09.323Z,63.10
2022-11-22T20:47:39.427Z,63.00
2022-11-22T20:50:09.689Z,63.00
2022-11-22T20:52:39.445Z,76.70
2022-11-22T20:55:11.074Z,88.30
2022-11-22T20:57:41.933Z,76.50
2022-11-22T21:00:12.711Z,61.80
2022-11-22T21:02:42.227Z,58.80
2022-11-22T21:05:12.520Z,62.50
2022-11-22T21:07:42.481Z,79.40
2022-11-22T21:10:12.786Z,71.80
2022-11-22T21:12:43.574Z,92.90
2022-11-22T21:15:16.031Z,70.60
2022-11-22T21:18:17.065Z,61.30
2022-11-22T21:20:37.548Z,67.60
2022-11-22T21:23:06.784Z,71.10
2022-11-22T21:25:36.595Z,71.30
2022-11-22T21:28:07.210Z,70.60
2022-11-22T21:30:37.285Z,59.70
2022-11-22T21:33:06.492Z,56.80
2022-11-22T21:35:37.653Z,72.00
2022-11-22T21:38:06.606Z,74.30
2022-11-22T21:40:35.705Z,67.90
2022-11-22T21:43:04.561Z,69.20
2022-11-22T21:45:34.003Z,81.50
2022-11-22T21:48:04.936Z,72.30
2022-11-22T21:50:33.631Z,64.40
2022-11-22T21:53:02.644Z,59.60
2022-11-22T21:55:31.500Z,68.30
2022-11-22T21:58:01.270Z,68.10
2022-11-22T22:00:30.000Z,78.20
2022-11-22T22:02:58.608Z,64.00
2022-11-22T22:05:27.394Z,54.90
2022-11-22T22:07:55.902Z,60.70
2022-11-22T22:10:24.440Z,64.90
2022-11-22T22:12:53.023Z,66.20
2022-11-22T22:15:22.635Z,66.20
2022-11-22T22:17:55.717Z,66.80
2022-11-22T22:20:24.520Z,66.10
2022-11-22T22:22:53.095Z,69.10
2022-11-22T22:25:21.981Z,69.30
2022-11-22T22:27:50.478Z,84.50
2022-11-22T22:30:23.346Z,69.50
2022-11-22T22:32:52.249Z,72.00
2022-11-22T22:35:21.618Z,66.80
2022-11-22T22:37:50.335Z,64.80
2022-11-22T22:40:21.781Z,68.60
2022-11-22T22:42:50.876Z,63.90
2022-11-22T22:45:20.511Z,66.90
2022-11-22T22:47:49.176Z,64.10
2022-11-22T22:50:17.883Z,76.20
2022-11-22T22:52:46.394Z,104.30
2022-11-22T22:55:14.720Z,92.40
2022-11-22T22:57:42.910Z,73.60
2022-11-22T23:00:12.088Z,66.20
2022-11-22T23:02:41.253Z,57.40
2022-11-22T23:05:09.881Z,59.20
2022-11-22T23:07:43.699Z,58.90
2022-11-22T23:10:12.357Z,58.30
2022-11-22T23:12:40.710Z,64.60
2022-11-22T23:15:09.421Z,62.90
2022-11-22T23:17:37.796Z,58.50
2022-11-22T23:20:06.692Z,62.80
2022-11-22T23:22:34.940Z,62.80
2022-11-22T23:25:03.455Z,57.30
2022-11-22T23:27:32.045Z,61.40
2022-11-22T23:30:00.416Z,61.50
2022-11-22T23:32:32.069Z,55.00
2022-11-22T23:35:00.565Z,60.90
2022-11-22T23:37:28.999Z,61.50
2022-11-22T23:39:57.313Z,65.50
2022-11-22T23:42:25.595Z,68.90
2022-11-22T23:44:54.273Z,75.40
2022-11-22T23:47:23.884Z,82.50
2022-11-22T23:49:52.248Z,101.30
2022-11-22T23:52:20.639Z,63.70
2022-11-22T23:54:48.986Z,67.40
2022-11-22T23:57:17.386Z,62.90
2022-11-22T23:59:45.885Z,87.60
